createdAt,value
2023-05-21T00:01:16.622Z,2.67
2023-05-21T00:03:47.145Z,2.43
2023-05-21T00:06:17.651Z,2.33
2023-05-21T00:08:47.841Z,2.70
2023-05-21T00:11:18.041Z,2.65
2023-05-21T00:13:48.248Z,2.65
2023-05-21T00:16:18.425Z,2.88
2023-05-21T00:18:54.700Z,2.22
2023-05-21T00:21:26.618Z,2.17
2023-05-21T00:23:57.546Z,2.75
2023-05-21T00:26:27.755Z,2.67
2023-05-21T00:28:57.955Z,3.03
2023-05-21T00:31:28.217Z,2.88
2023-05-21T00:33:58.687Z,3.20
2023-05-21T00:36:28.829Z,3.00
2023-05-21T00:38:59.011Z,2.78
2023-05-21T00:41:30.455Z,3.05
2023-05-21T00:44:00.615Z,3.30
2023-05-21T00:46:31.068Z,2.90
2023-05-21T00:49:02.084Z,2.67
2023-05-21T00:51:32.964Z,2.55
2023-05-21T00:54:04.560Z,2.72
2023-05-21T00:56:34.721Z,2.58
2023-05-21T00:59:05.845Z,2.63
2023-05-21T01:01:37.398Z,2.80
2023-05-21T01:04:07.755Z,2.88
2023-05-21T01:06:38.310Z,3.15
2023-05-21T01:09:09.372Z,2.53
2023-05-21T01:11:43.945Z,2.45
2023-05-21T01:14:16.404Z,1.95
2023-05-21T01:16:48.752Z,2.58
2023-05-21T01:19:21.334Z,2.92
2023-05-21T01:22:01.855Z,2.80
2023-05-21T01:24:32.201Z,2.22
2023-05-21T01:27:03.844Z,3.20
2023-05-21T01:29:34.358Z,2.25
2023-05-21T01:32:04.638Z,2.50
2023-05-21T01:35:01.126Z,2.33
2023-05-21T01:37:34.051Z,2.47
2023-05-21T01:40:12.100Z,2.10
2023-05-21T01:42:44.939Z,2.45
2023-05-21T01:45:16.924Z,2.25
2023-05-21T01:47:49.501Z,2.13
2023-05-21T01:50:20.368Z,2.13
2023-05-21T01:52:53.192Z,2.15
2023-05-21T01:55:27.093Z,2.15
2023-05-21T01:57:59.432Z,2.10
2023-05-21T02:00:32.826Z,2.20
2023-05-21T02:03:03.223Z,1.95
2023-05-21T02:05:33.647Z,2.20
2023-05-21T02:08:04.016Z,2.10
2023-05-21T02:10:35.169Z,2.20
2023-05-21T02:13:05.442Z,2.20
2023-05-21T02:15:36.028Z,1.80
2023-05-21T02:18:06.415Z,1.95
2023-05-21T02:20:36.667Z,2.00
2023-05-21T02:23:06.888Z,2.13
2023-05-21T02:25:37.361Z,2.25
2023-05-21T02:28:07.983Z,2.05
2023-05-21T02:30:38.493Z,2.25
2023-05-21T02:33:09.508Z,2.03
2023-05-21T02:35:39.876Z,2.25
2023-05-21T02:38:10.685Z,2.03
2023-05-21T02:40:41.243Z,2.53
2023-05-21T02:43:12.663Z,2.05
2023-05-21T02:45:43.821Z,2.30
2023-05-21T02:48:14.145Z,2.20
2023-05-21T02:50:44.293Z,1.65
2023-05-21T02:53:14.540Z,2.30
2023-05-21T02:55:44.639Z,1.95
2023-05-21T02:58:15.211Z,1.77
2023-05-21T03:00:45.559Z,2.08
2023-05-21T03:03:16.551Z,1.75
2023-05-21T03:05:46.837Z,1.90
2023-05-21T03:08:17.274Z,1.67
2023-05-21T03:10:47.476Z,1.60
2023-05-21T03:13:17.725Z,1.63
2023-05-21T03:15:48.039Z,3.22
2023-05-21T03:18:18.192Z,1.90
2023-05-21T03:20:48.437Z,1.83
2023-05-21T03:23:18.615Z,2.03
2023-05-21T03:25:48.814Z,1.73
2023-05-21T03:28:18.992Z,1.63
2023-05-21T03:30:52.287Z,1.70
2023-05-21T03:33:23.073Z,1.73
2023-05-21T03:35:53.207Z,1.40
2023-05-21T03:38:23.454Z,1.50
2023-05-21T03:40:54.391Z,1.80
2023-05-21T03:43:24.578Z,1.80
2023-05-21T03:45:55.217Z,1.45
2023-05-21T03:48:25.503Z,1.45
2023-05-21T03:50:56.305Z,1.60
2023-05-21T03:53:26.948Z,1.58
2023-05-21T03:55:57.164Z,1.70
2023-05-21T03:58:28.338Z,1.40
2023-05-21T04:00:58.565Z,1.58
2023-05-21T04:03:29.269Z,1.58
2023-05-21T04:05:59.693Z,1.30
2023-05-21T04:08:30.167Z,1.40
2023-05-21T04:11:00.425Z,1.45
2023-05-21T04:13:31.040Z,1.63
2023-05-21T04:16:01.389Z,1.40
2023-05-21T04:18:31.679Z,1.40
2023-05-21T04:21:02.568Z,1.58
2023-05-21T04:23:33.667Z,1.45
2023-05-21T04:26:05.002Z,1.40
2023-05-21T04:28:35.613Z,1.20
2023-05-21T04:31:06.144Z,1.90
2023-05-21T04:33:36.322Z,1.42
2023-05-21T04:36:10.081Z,1.50
2023-05-21T04:38:42.094Z,1.48
2023-05-21T04:41:14.438Z,1.55
2023-05-21T04:43:44.934Z,1.50
2023-05-21T04:46:15.160Z,1.65
2023-05-21T04:48:45.335Z,1.75
2023-05-21T04:51:15.433Z,1.75
2023-05-21T04:53:46.478Z,1.45
2023-05-21T04:56:20.126Z,1.50
2023-05-21T04:58:50.421Z,1.75
2023-05-21T05:01:25.681Z,1.55
2023-05-21T05:03:56.692Z,2.08
2023-05-21T05:06:27.017Z,1.45
2023-05-21T05:08:57.414Z,1.80
2023-05-21T05:11:27.582Z,1.65
2023-05-21T05:13:57.726Z,1.42
2023-05-21T05:16:29.857Z,1.63
2023-05-21T05:19:00.384Z,1.73
2023-05-21T05:21:31.100Z,1.50
2023-05-21T05:24:01.349Z,1.52
2023-05-21T05:26:31.577Z,1.52
2023-05-21T05:29:01.826Z,1.23
2023-05-21T05:31:32.152Z,1.55
2023-05-21T05:34:02.544Z,1.40
2023-05-21T05:36:34.071Z,1.50
2023-05-21T05:39:04.346Z,1.55
2023-05-21T05:41:34.667Z,1.50
2023-05-21T05:44:04.995Z,1.73
2023-05-21T05:46:35.216Z,1.40
2023-05-21T05:49:05.488Z,1.48
2023-05-21T05:51:36.548Z,2.00
2023-05-21T05:54:06.780Z,1.60
2023-05-21T05:56:36.977Z,1.60
2023-05-21T05:59:07.204Z,1.50
2023-05-21T06:01:37.519Z,1.25
2023-05-21T06:04:07.709Z,1.40
2023-05-21T06:06:37.957Z,1.58
2023-05-21T06:09:08.123Z,1.30
2023-05-21T06:11:38.984Z,1.20
2023-05-21T06:14:09.203Z,1.30
2023-05-21T06:16:39.432Z,1.40
2023-05-21T06:19:09.800Z,1.25
2023-05-21T06:21:40.015Z,1.40
2023-05-21T06:24:10.191Z,1.20
2023-05-21T06:26:40.401Z,1.10
2023-05-21T06:29:10.678Z,1.40
2023-05-21T06:31:40.886Z,1.10
2023-05-21T06:34:12.074Z,1.02
2023-05-21T06:36:42.374Z,1.08
2023-05-21T06:39:12.539Z,1.10
2023-05-21T06:41:42.781Z,1.50
2023-05-21T06:44:12.959Z,1.48
2023-05-21T06:46:43.374Z,1.15
2023-05-21T06:49:14.635Z,1.13
2023-05-21T06:51:44.940Z,1.23
2023-05-21T06:54:15.273Z,1.20
2023-05-21T06:56:45.582Z,1.33
2023-05-21T06:59:16.018Z,1.20
2023-05-21T07:01:46.229Z,1.38
2023-05-21T07:04:16.460Z,1.20
2023-05-21T07:06:46.956Z,1.00
2023-05-21T07:09:18.402Z,1.40
2023-05-21T07:11:48.647Z,1.20
2023-05-21T07:14:19.122Z,1.00
2023-05-21T07:16:49.365Z,0.90
2023-05-21T07:19:19.864Z,0.98
2023-05-21T07:21:50.146Z,1.13
2023-05-21T07:24:21.362Z,1.15
2023-05-21T07:26:51.585Z,1.05
2023-05-21T07:29:21.782Z,1.10
2023-05-21T07:31:52.067Z,1.25
2023-05-21T07:34:22.222Z,1.00
2023-05-21T07:36:52.803Z,1.00
2023-05-21T07:39:23.333Z,1.17
2023-05-21T07:41:53.547Z,0.90
2023-05-21T07:44:24.678Z,1.10
2023-05-21T07:46:54.867Z,0.88
2023-05-21T07:49:24.964Z,1.08
2023-05-21T07:51:55.194Z,1.00
2023-05-21T07:54:25.408Z,1.02
2023-05-21T07:56:56.800Z,1.08
2023-05-21T07:59:27.113Z,1.40
2023-05-21T08:01:57.320Z,1.20
2023-05-21T08:04:27.561Z,1.35
2023-05-21T08:06:57.928Z,1.02
2023-05-21T08:09:28.506Z,0.90
2023-05-21T08:11:58.654Z,1.30
2023-05-21T08:14:28.868Z,1.08
2023-05-21T08:16:58.966Z,0.98
2023-05-21T08:19:29.149Z,1.25
2023-05-21T08:21:59.428Z,1.30
2023-05-21T08:24:29.780Z,0.85
2023-05-21T08:27:00.161Z,1.10
2023-05-21T08:29:30.355Z,0.98
2023-05-21T08:32:00.869Z,1.13
2023-05-21T08:34:31.948Z,1.10
2023-05-21T08:37:02.076Z,1.10
2023-05-21T08:39:32.336Z,1.10
2023-05-21T08:42:37.094Z,1.15
2023-05-21T08:45:09.437Z,1.20
2023-05-21T08:47:42.131Z,1.00
2023-05-21T08:50:16.471Z,1.17
2023-05-21T08:52:47.166Z,1.20
2023-05-21T08:55:17.752Z,1.23
2023-05-21T08:57:49.170Z,1.40
2023-05-21T09:00:21.253Z,1.48
2023-05-21T09:02:54.789Z,1.48
2023-05-21T09:05:25.885Z,1.50
2023-05-21T09:08:14.744Z,1.23
2023-05-21T09:10:52.554Z,1.40
2023-05-21T09:13:26.732Z,1.20
2023-05-21T09:15:57.236Z,1.00
2023-05-21T09:18:27.944Z,1.45
2023-05-21T09:21:19.549Z,1.40
2023-05-21T09:23:55.244Z,1.40
2023-05-21T09:26:26.898Z,1.20
2023-05-21T09:28:59.704Z,1.20
2023-05-21T09:31:30.133Z,1.20
2023-05-21T09:34:00.611Z,1.20
2023-05-21T09:36:33.357Z,1.55
2023-05-21T09:39:03.607Z,1.50
2023-05-21T09:41:36.304Z,1.10
2023-05-21T09:44:06.762Z,1.13
2023-05-21T09:46:43.264Z,1.30
2023-05-21T09:49:25.040Z,1.55
2023-05-21T09:51:59.226Z,1.40
2023-05-21T09:54:33.759Z,1.13
2023-05-21T09:57:04.279Z,1.42
2023-05-21T09:59:40.571Z,1.20
2023-05-21T10:02:22.382Z,1.35
2023-05-21T10:04:55.892Z,1.40
2023-05-21T10:07:27.391Z,1.50
2023-05-21T10:10:00.438Z,1.60
2023-05-21T10:12:31.209Z,1.17
2023-05-21T10:15:05.136Z,1.35
2023-05-21T10:17:36.783Z,1.40
2023-05-21T10:20:10.810Z,1.52
2023-05-21T10:22:41.792Z,1.50
2023-05-21T10:25:13.472Z,1.33
2023-05-21T10:27:44.376Z,1.25
2023-05-21T10:30:16.208Z,1.50
2023-05-21T10:32:49.066Z,1.48
2023-05-21T10:35:19.443Z,1.38
2023-05-21T10:37:50.641Z,1.30
2023-05-21T10:40:20.863Z,1.40
2023-05-21T10:43:13.520Z,1.00
2023-05-21T10:45:56.826Z,1.58
2023-05-21T10:48:48.751Z,1.25
2023-05-21T10:51:21.329Z,1.35
2023-05-21T10:54:13.382Z,1.25
2023-05-21T10:56:59.155Z,1.40
2023-05-21T10:59:42.812Z,1.45
2023-05-21T11:02:17.372Z,1.27
2023-05-21T11:04:49.486Z,1.33
2023-05-21T11:07:57.424Z,1.30
2023-05-21T11:10:41.097Z,1.30
2023-05-21T11:13:13.832Z,1.40
2023-05-21T11:15:59.252Z,1.20
2023-05-21T11:18:35.463Z,1.38
2023-05-21T11:21:07.912Z,1.38
2023-05-21T11:23:57.112Z,1.13
2023-05-21T11:26:29.968Z,1.30
2023-05-21T11:29:07.766Z,1.23
2023-05-21T11:31:41.182Z,1.30
2023-05-21T11:34:11.406Z,1.10
2023-05-21T11:36:45.054Z,1.17
2023-05-21T11:39:21.864Z,1.70
2023-05-21T11:41:53.605Z,1.25
2023-05-21T11:44:48.581Z,1.10
2023-05-21T11:49:49.746Z,1.20
2023-05-21T11:52:20.283Z,1.10
2023-05-21T11:54:56.952Z,1.00
2023-05-21T11:57:32.109Z,1.30
2023-05-21T12:00:13.042Z,1.13
2023-05-21T12:02:53.728Z,1.20
2023-05-21T12:05:24.900Z,1.30
2023-05-21T12:07:55.770Z,1.75
2023-05-21T12:10:26.064Z,1.58
2023-05-21T12:12:57.574Z,1.35
2023-05-21T12:15:28.365Z,1.30
2023-05-21T12:17:58.792Z,1.20
2023-05-21T12:20:29.359Z,1.00
2023-05-21T12:22:59.571Z,1.23
2023-05-21T12:25:32.309Z,1.20
2023-05-21T12:28:03.703Z,1.30
2023-05-21T12:30:34.114Z,1.17
2023-05-21T12:33:04.867Z,1.30
2023-05-21T12:35:35.223Z,1.10
2023-05-21T12:38:07.191Z,1.08
2023-05-21T12:40:39.018Z,1.00
2023-05-21T12:43:10.045Z,1.40
2023-05-21T12:45:40.669Z,1.05
2023-05-21T12:48:12.710Z,1.40
2023-05-21T12:50:43.493Z,1.08
2023-05-21T12:53:13.626Z,1.38
2023-05-21T12:55:43.868Z,0.80
2023-05-21T12:58:14.567Z,0.90
2023-05-21T13:00:45.687Z,1.17
2023-05-21T13:03:16.691Z,1.10
2023-05-21T13:05:47.055Z,1.10
2023-05-21T13:08:17.579Z,1.00
2023-05-21T13:10:48.643Z,0.70
2023-05-21T13:13:18.924Z,0.90
2023-05-21T13:15:49.195Z,1.02
2023-05-21T13:18:21.137Z,0.90
2023-05-21T13:20:51.982Z,1.02
2023-05-21T13:23:22.166Z,1.00
2023-05-21T13:25:52.400Z,1.20
2023-05-21T13:28:23.874Z,1.08
2023-05-21T13:30:55.188Z,1.08
2023-05-21T13:33:25.529Z,1.20
2023-05-21T13:35:55.903Z,1.20
2023-05-21T13:38:26.070Z,0.93
2023-05-21T13:40:56.170Z,1.00
2023-05-21T13:43:26.329Z,1.25
2023-05-21T13:45:56.650Z,1.20
2023-05-21T13:48:27.110Z,0.95
2023-05-21T13:50:57.319Z,0.98
2023-05-21T13:53:27.559Z,0.98
2023-05-21T13:55:57.749Z,1.13
2023-05-21T13:58:28.085Z,1.02
2023-05-21T14:00:58.316Z,1.10
2023-05-21T14:03:28.581Z,1.17
2023-05-21T14:05:58.767Z,1.00
2023-05-21T14:08:29.645Z,1.23
2023-05-21T14:10:59.803Z,1.10
2023-05-21T14:13:30.054Z,1.20
2023-05-21T14:16:00.259Z,1.15
2023-05-21T14:18:30.539Z,1.23
2023-05-21T14:21:00.889Z,1.23
2023-05-21T14:23:31.125Z,1.13
2023-05-21T14:26:01.510Z,1.38
2023-05-21T14:28:31.778Z,1.30
2023-05-21T14:31:02.184Z,1.10
2023-05-21T14:33:33.953Z,1.10
2023-05-21T14:36:05.162Z,1.20
2023-05-21T14:38:35.317Z,1.50
2023-05-21T14:41:06.600Z,1.35
2023-05-21T14:43:36.870Z,1.20
2023-05-21T14:46:07.035Z,1.23
2023-05-21T14:48:37.200Z,1.33
2023-05-21T14:51:08.572Z,1.73
2023-05-21T14:53:38.865Z,2.90
2023-05-21T14:56:09.218Z,1.90
2023-05-21T14:58:39.431Z,1.50
2023-05-21T15:01:09.630Z,1.50
2023-05-21T15:03:40.109Z,1.55
2023-05-21T15:06:10.461Z,1.73
2023-05-21T15:08:40.857Z,1.50
2023-05-21T15:11:11.701Z,1.73
2023-05-21T15:13:41.959Z,1.67
2023-05-21T15:16:12.162Z,1.75
2023-05-21T15:18:42.401Z,1.75
2023-05-21T15:21:12.662Z,1.70
2023-05-21T15:23:42.876Z,1.80
2023-05-21T15:26:13.069Z,1.95
2023-05-21T15:28:43.627Z,2.30
2023-05-21T15:31:26.854Z,2.35
2023-05-21T15:33:58.447Z,2.22
2023-05-21T15:36:29.896Z,2.00
2023-05-21T15:39:03.587Z,1.73
2023-05-21T15:41:39.740Z,1.67
2023-05-21T15:44:09.984Z,1.65
2023-05-21T15:46:40.198Z,1.83
2023-05-21T15:49:10.667Z,1.75
2023-05-21T15:51:40.861Z,2.17
2023-05-21T15:54:11.085Z,1.98
2023-05-21T15:56:44.635Z,1.95
2023-05-21T15:59:14.751Z,1.70
2023-05-21T16:01:45.823Z,1.90
2023-05-21T16:04:17.204Z,1.90
2023-05-21T16:06:50.383Z,2.13
2023-05-21T16:09:20.674Z,1.75
2023-05-21T16:11:50.779Z,1.80
2023-05-21T16:14:21.006Z,1.90
2023-05-21T16:16:51.230Z,2.10
2023-05-21T16:19:24.237Z,2.15
2023-05-21T16:21:54.495Z,2.22
2023-05-21T16:24:24.715Z,2.33
2023-05-21T16:26:55.026Z,2.60
2023-05-21T16:29:25.187Z,2.50
2023-05-21T16:31:55.487Z,2.20
2023-05-21T16:34:25.832Z,1.85
2023-05-21T16:36:56.535Z,1.90
2023-05-21T16:39:26.796Z,2.22
2023-05-21T16:41:59.804Z,2.15
2023-05-21T16:44:32.006Z,2.08
2023-05-21T16:47:02.672Z,2.08
2023-05-21T16:49:32.855Z,2.60
2023-05-21T16:52:03.566Z,1.95
2023-05-21T16:54:34.166Z,2.40
2023-05-21T16:57:05.104Z,2.15
2023-05-21T16:59:35.274Z,2.58
2023-05-21T17:02:05.904Z,2.10
2023-05-21T17:04:36.340Z,2.30
2023-05-21T17:07:06.712Z,2.28
2023-05-21T17:09:36.862Z,2.00
2023-05-21T17:12:07.424Z,2.15
2023-05-21T17:14:39.657Z,2.30
2023-05-21T17:17:10.013Z,2.40
2023-05-21T17:19:41.032Z,2.20
2023-05-21T17:22:12.046Z,2.45
2023-05-21T17:24:42.336Z,1.98
2023-05-21T17:27:12.742Z,2.00
2023-05-21T17:29:42.933Z,2.05
2023-05-21T17:32:13.374Z,2.20
2023-05-21T17:34:43.906Z,2.15
2023-05-21T17:37:14.265Z,2.38
2023-05-21T17:39:44.570Z,2.88
2023-05-21T17:42:14.810Z,2.72
2023-05-21T17:44:45.048Z,2.80
2023-05-21T17:47:15.296Z,2.42
2023-05-21T17:49:45.723Z,2.42
2023-05-21T17:52:16.153Z,2.25
2023-05-21T17:54:48.133Z,2.70
2023-05-21T17:57:20.254Z,2.33
2023-05-21T17:59:50.477Z,2.38
2023-05-21T18:02:20.812Z,2.15
2023-05-21T18:04:50.948Z,2.70
2023-05-21T18:07:22.383Z,2.78
2023-05-21T18:09:52.531Z,3.03
2023-05-21T18:12:22.748Z,2.15
2023-05-21T18:14:52.892Z,2.53
2023-05-21T18:17:23.213Z,2.90
2023-05-21T18:19:53.792Z,2.70
2023-05-21T18:22:23.972Z,2.83
2023-05-21T18:24:54.243Z,2.78
2023-05-21T18:27:24.404Z,4.88
2023-05-21T18:29:54.772Z,5.43
2023-05-21T18:32:25.118Z,5.22
2023-05-21T18:34:56.750Z,4.47
2023-05-21T18:37:27.552Z,5.60
2023-05-21T18:39:57.768Z,5.80
2023-05-21T18:42:28.433Z,3.67
2023-05-21T18:45:07.674Z,2.85
2023-05-21T18:47:39.294Z,2.83
2023-05-21T18:50:12.965Z,2.65
2023-05-21T18:52:43.212Z,2.63
2023-05-21T18:55:14.519Z,2.88
2023-05-21T18:57:46.300Z,2.60
2023-05-21T19:00:17.012Z,2.58
2023-05-21T19:02:47.395Z,2.30
2023-05-21T19:05:17.757Z,2.50
2023-05-21T19:07:48.003Z,2.15
2023-05-21T19:10:19.849Z,2.40
2023-05-21T19:12:50.218Z,2.38
2023-05-21T19:15:20.472Z,2.65
2023-05-21T19:17:50.794Z,2.30
2023-05-21T19:20:24.909Z,2.28
2023-05-21T19:22:55.248Z,1.95
2023-05-21T19:25:25.509Z,2.63
2023-05-21T19:27:56.974Z,2.65
2023-05-21T19:30:27.521Z,2.00
2023-05-21T19:32:57.719Z,2.33
2023-05-21T19:35:28.026Z,2.28
2023-05-21T19:38:01.295Z,2.67
2023-05-21T19:40:34.005Z,2.23
2023-05-21T19:43:04.473Z,2.08
2023-05-21T19:45:34.844Z,2.13
2023-05-21T19:48:05.749Z,2.08
2023-05-21T19:50:36.366Z,2.15
2023-05-21T19:53:06.694Z,2.15
2023-05-21T19:55:37.752Z,2.03
2023-05-21T19:58:09.388Z,2.38
2023-05-21T20:00:40.399Z,2.10
2023-05-21T20:03:13.348Z,1.85
2023-05-21T20:05:43.893Z,2.17
2023-05-21T20:08:15.057Z,2.15
2023-05-21T20:10:45.350Z,2.28
2023-05-21T20:13:16.324Z,2.20
2023-05-21T20:15:48.141Z,1.83
2023-05-21T20:18:20.376Z,2.03
2023-05-21T20:20:50.654Z,1.65
2023-05-21T20:23:21.139Z,2.33
2023-05-21T20:25:51.457Z,1.80
2023-05-21T20:28:23.146Z,1.55
2023-05-21T20:30:58.250Z,1.90
2023-05-21T20:33:32.924Z,1.80
2023-05-21T20:36:03.780Z,1.58
2023-05-21T20:38:34.411Z,1.67
2023-05-21T20:41:05.355Z,1.92
2023-05-21T20:43:37.530Z,1.80
2023-05-21T20:46:08.012Z,1.67
2023-05-21T20:48:38.518Z,1.70
2023-05-21T20:51:08.789Z,1.50
2023-05-21T20:53:40.265Z,1.70
2023-05-21T20:56:11.905Z,1.55
2023-05-21T20:58:42.249Z,1.42
2023-05-21T21:01:14.647Z,1.50
2023-05-21T21:03:48.303Z,1.70
2023-05-21T21:06:18.934Z,1.35
2023-05-21T21:08:50.417Z,1.63
2023-05-21T21:11:21.833Z,1.33
2023-05-21T21:13:52.075Z,1.95
2023-05-21T21:16:22.411Z,1.35
2023-05-21T21:18:53.868Z,1.58
2023-05-21T21:21:24.145Z,1.45
2023-05-21T21:23:54.280Z,1.77
2023-05-21T21:26:24.989Z,1.60
2023-05-21T21:28:56.598Z,1.90
2023-05-21T21:31:27.178Z,2.13
2023-05-21T21:33:58.011Z,1.85
2023-05-21T21:36:31.657Z,1.30
2023-05-21T21:39:02.823Z,1.77
2023-05-21T21:41:33.435Z,1.40
2023-05-21T21:44:04.792Z,1.38
2023-05-21T21:46:35.025Z,1.85
2023-05-21T21:49:05.369Z,1.40
2023-05-21T21:51:37.162Z,1.35
2023-05-21T21:54:07.473Z,1.65
2023-05-21T21:56:37.708Z,1.90
2023-05-21T21:59:08.020Z,1.80
2023-05-21T22:01:38.268Z,1.85
2023-05-21T22:04:11.545Z,1.65
2023-05-21T22:06:41.824Z,1.70
2023-05-21T22:09:12.550Z,1.70
2023-05-21T22:11:42.952Z,1.92
2023-05-21T22:14:13.201Z,1.60
2023-05-21T22:16:43.571Z,1.83
2023-05-21T22:19:16.072Z,1.58
2023-05-21T22:21:46.483Z,2.20
2023-05-21T22:24:31.051Z,1.40
2023-05-21T22:27:03.009Z,1.52
2023-05-21T22:29:33.324Z,1.85
2023-05-21T22:32:03.993Z,1.50
2023-05-21T22:34:34.414Z,1.40
2023-05-21T22:37:04.812Z,1.42
2023-05-21T22:39:35.048Z,1.60
2023-05-21T22:42:05.663Z,1.70
2023-05-21T22:44:35.814Z,1.60
2023-05-21T22:47:06.605Z,1.80
2023-05-21T22:49:38.321Z,1.70
2023-05-21T22:52:09.446Z,2.10
2023-05-21T22:54:39.680Z,1.65
2023-05-21T22:57:09.956Z,1.55
2023-05-21T22:59:40.275Z,1.60
2023-05-21T23:02:11.810Z,1.80
2023-05-21T23:04:44.227Z,1.50
2023-05-21T23:07:15.061Z,1.55
2023-05-21T23:09:45.274Z,1.75
2023-05-21T23:12:16.249Z,1.80
2023-05-21T23:14:46.697Z,1.50
2023-05-21T23:17:17.201Z,1.30
2023-05-21T23:19:50.117Z,1.73
2023-05-21T23:22:20.425Z,1.50
2023-05-21T23:24:51.403Z,1.58
2023-05-21T23:27:21.654Z,1.38
2023-05-21T23:29:51.933Z,1.52
2023-05-21T23:32:23.627Z,1.63
2023-05-21T23:34:53.971Z,1.60
2023-05-21T23:37:24.372Z,1.30
2023-05-21T23:39:54.517Z,1.38
2023-05-21T23:42:24.870Z,1.60
2023-05-21T23:44:55.086Z,1.60
2023-05-21T23:47:26.040Z,1.38
2023-05-21T23:49:56.233Z,1.20
2023-05-21T23:52:26.497Z,1.48
2023-05-21T23:54:57.698Z,1.30
2023-05-21T23:57:27.942Z,1.42
2023-05-21T23:59:58.407Z,1.73
